PORT of AGATHONISSI

Land: Greece Land: Greece [GR]
Bredde og lengdegrad: 37.452475° / 26.966° Vis i kart
Lokal tid:  [UTC +3]
UN/LOCODE: GRAGN

Siste ankomster og avganger


Fartøyets navn
Ankomst (UTC)
Ankomst (LT)
Avgang (UTC)
Avgang (LT)
Vessel Type: Yachts & andre  CLIA 2014-08-28 08:08:00 2014-08-28 11:08:00 2014-08-28 18:06:00 2014-08-28 21:06:00
Vessel Type: Yachts & andre  CLOUD ATLAS 2014-08-23 14:16:00 2014-08-23 17:16:00 2014-08-27 07:08:00 2014-08-27 10:08:00
Vessel Type: Passasjer båt  NISOS KALYMNOS 2014-08-26 13:38:00 2014-08-26 16:38:00 2014-08-26 14:10:00 2014-08-26 17:10:00
Vessel Type: Tankskip  MARIA 2014-08-26 00:18:00 2014-08-26 03:18:00 2014-08-26 09:21:00 2014-08-26 12:21:00
Vessel Type: Yachts & andre  CHRISTINA 2014-08-25 13:30:00 2014-08-25 16:30:00 2014-08-26 08:36:00 2014-08-26 11:36:00
Vessel Type: Passasjer båt  ANNAEXPRESS 2014-08-25 12:43:00 2014-08-25 15:43:00 2014-08-25 12:58:00 2014-08-25 15:58:00
Vessel Type: Passasjer båt  NISOS KALYMNOS 2014-08-24 15:07:00 2014-08-24 18:07:00 2014-08-24 16:25:00 2014-08-24 19:25:00
Vessel Type: Tankskip  CHRISANTHI 2014-08-24 06:10:00 2014-08-24 09:10:00 2014-08-24 07:47:00 2014-08-24 10:47:00
Vessel Type: Slepebåt, losbåt  PLS 140 2014-08-24 01:17:00 2014-08-24 04:17:00 2014-08-24 06:03:00 2014-08-24 09:03:00
Vessel Type: Passasjer båt  NISOS KALYMNOS 2014-08-22 13:30:00 2014-08-22 16:30:00 2014-08-22 13:53:00 2014-08-22 16:53:00

Forventet ankomst


Fartøyets navn
Scheduled Arrival (UTC)
Fastsatt ankomsttid (lokal)
Beregnet ankomst (UTC)
Beregnet ankomst lokal tid
Ingen registreringer funnet

Wind Forecast


    
Tid (UTC)
Fart
Direction
Temperature
2014-08-29 00:00:00 20 knots 359° 26°C
2014-08-29 03:00:00 21 knots 12° 25°C
2014-08-29 06:00:00 21 knots 14° 26°C
2014-08-29 09:00:00 19 knots 356° 30°C
2014-08-29 12:00:00 18 knots 341° 31°C
2014-08-29 15:00:00 21 knots 343° 31°C
2014-08-29 18:00:00 22 knots 357° 29°C
2014-08-29 21:00:00 19 knots 358° 28°C
2014-08-30 00:00:00 18 knots 358° 26°C
2014-08-30 03:00:00 15 knots 357° 25°C
2014-08-30 06:00:00 9 knots 356° 26°C
2014-08-30 09:00:00 6 knots 323° 27°C
2014-08-30 12:00:00 7 knots 294° 27°C
2014-08-30 15:00:00 7 knots 303° 27°C
2014-08-30 18:00:00 8 knots 349° 28°C
2014-08-30 21:00:00 9 knots 45° 27°C

NO_PHOTO

No Photos for this port. Be the first to upload one!